createdAt,value
2023-04-07T00:01:13.985Z,100187.88
2023-04-07T00:03:42.480Z,100173.75
2023-04-07T00:06:12.304Z,100183.84
2023-04-07T00:08:40.746Z,100179.84
2023-04-07T00:11:09.640Z,100185.72
2023-04-07T00:13:37.924Z,100187.06
2023-04-07T00:16:06.420Z,100190.53
2023-04-07T00:18:34.861Z,100181.75
2023-04-07T00:21:03.108Z,100184.13
2023-04-07T00:23:32.930Z,100189.44
2023-04-07T00:26:01.262Z,100190.53
2023-04-07T00:28:29.672Z,100190.00
2023-04-07T00:30:57.983Z,100192.16
2023-04-07T00:33:26.331Z,100192.16
2023-04-07T00:35:55.068Z,100192.72
2023-04-07T00:38:23.406Z,100182.63
2023-04-07T00:40:59.210Z,100180.47
2023-04-07T00:43:27.517Z,100183.63
2023-04-07T00:45:56.092Z,100189.50
2023-04-07T00:48:24.643Z,100188.22
2023-04-07T00:50:53.171Z,100190.06
2023-04-07T00:53:21.948Z,100190.34
2023-04-07T00:55:50.458Z,100194.66
2023-04-07T00:58:20.244Z,100198.38
2023-04-07T01:00:53.038Z,100193.00
2023-04-07T01:03:36.210Z,100194.94
2023-04-07T01:06:08.701Z,100192.28
2023-04-07T01:08:46.071Z,100201.38
2023-04-07T01:11:21.604Z,100196.59
2023-04-07T01:13:53.409Z,100187.56
2023-04-07T01:16:28.779Z,100196.34
2023-04-07T01:19:01.339Z,100189.19
2023-04-07T01:21:31.029Z,100193.44
2023-04-07T01:24:37.648Z,100191.34
2023-04-07T01:27:18.030Z,100189.50
2023-04-07T01:29:50.660Z,100194.56
2023-04-07T01:32:21.714Z,100181.25
2023-04-07T01:34:52.118Z,100190.31
2023-04-07T01:37:21.716Z,100183.88
2023-04-07T01:39:50.312Z,100187.91
2023-04-07T01:42:20.672Z,100189.75
2023-04-07T01:44:52.475Z,100190.53
2023-04-07T01:47:21.266Z,100193.47
2023-04-07T01:49:51.447Z,100191.63
2023-04-07T01:52:20.142Z,100185.25
2023-04-07T01:54:49.484Z,100195.66
2023-04-07T01:57:17.903Z,100184.50
2023-04-07T01:59:46.214Z,100180.00
2023-04-07T02:02:16.350Z,100184.25
2023-04-07T02:04:53.932Z,100186.63
2023-04-07T02:07:29.752Z,100189.25
2023-04-07T02:10:01.447Z,100189.53
2023-04-07T02:12:33.165Z,100184.72
2023-04-07T02:15:02.697Z,100189.25
2023-04-07T02:17:36.296Z,100193.22
2023-04-07T02:20:06.547Z,100192.19
2023-04-07T02:22:35.082Z,100193.78
2023-04-07T02:25:03.630Z,100199.09
2023-04-07T02:27:31.982Z,100192.44
2023-04-07T02:30:00.568Z,100196.94
2023-04-07T02:32:28.910Z,100197.50
2023-04-07T02:34:58.832Z,100200.97
2023-04-07T02:37:27.128Z,100202.25
2023-04-07T02:39:55.616Z,100200.94
2023-04-07T02:42:24.042Z,100206.25
2023-04-07T02:44:52.553Z,100208.63
2023-04-07T02:47:20.972Z,100220.59
2023-04-07T02:49:49.483Z,100204.88
2023-04-07T02:52:19.365Z,100211.78
2023-04-07T02:54:47.851Z,100221.38
2023-04-07T02:57:16.266Z,100216.38
2023-04-07T02:59:44.528Z,100213.72
2023-04-07T03:02:13.262Z,100218.19
2023-04-07T03:04:41.995Z,100226.41
2023-04-07T03:07:10.357Z,100223.75
2023-04-07T03:09:40.059Z,100215.78
2023-04-07T03:12:08.822Z,100228.28
2023-04-07T03:14:37.386Z,100233.56
2023-04-07T03:17:06.157Z,100236.03
2023-04-07T03:19:34.558Z,100230.66
2023-04-07T03:22:02.877Z,100231.44
2023-04-07T03:24:31.409Z,100232.78
2023-04-07T03:27:02.190Z,100240.44
2023-04-07T03:29:30.449Z,100232.78
2023-04-07T03:31:58.765Z,100247.41
2023-04-07T03:34:27.213Z,100239.41
2023-04-07T03:36:55.720Z,100247.16
2023-04-07T03:39:24.045Z,100243.72
2023-04-07T03:41:52.481Z,100241.09
2023-04-07T03:44:22.266Z,100252.53
2023-04-07T03:46:50.953Z,100252.75
2023-04-07T03:49:19.319Z,100258.34
2023-04-07T03:51:47.705Z,100256.97
2023-04-07T03:54:16.145Z,100266.31
2023-04-07T03:56:46.063Z,100268.16
2023-04-07T03:59:14.449Z,100262.56
2023-04-07T04:01:44.341Z,100251.69
2023-04-07T04:04:12.888Z,100258.69
2023-04-07T04:06:41.438Z,100264.88
2023-04-07T04:09:09.936Z,100262.00
2023-04-07T04:11:38.284Z,100268.59
2023-04-07T04:14:06.780Z,100266.16
2023-04-07T04:16:35.625Z,100268.47
2023-04-07T04:19:05.560Z,100266.72
2023-04-07T04:21:34.072Z,100271.81
2023-04-07T04:24:02.468Z,100271.78
2023-04-07T04:26:30.880Z,100281.97
2023-04-07T04:28:59.130Z,100278.53
2023-04-07T04:31:27.427Z,100283.41
2023-04-07T04:33:56.212Z,100284.16
2023-04-07T04:36:26.388Z,100289.50
2023-04-07T04:38:54.693Z,100286.28
2023-04-07T04:41:23.193Z,100292.94
2023-04-07T04:43:51.640Z,100294.88
2023-04-07T04:46:19.965Z,100290.81
2023-04-07T04:48:48.434Z,100296.38
2023-04-07T04:51:16.831Z,100287.09
2023-04-07T04:53:46.658Z,100293.78
2023-04-07T04:56:15.043Z,100302.31
2023-04-07T04:58:46.528Z,100292.16
2023-04-07T05:01:15.197Z,100306.47
2023-04-07T05:03:43.886Z,100306.47
2023-04-07T05:06:12.290Z,100309.69
2023-04-07T05:08:40.602Z,100315.75
2023-04-07T05:11:10.442Z,100313.63
2023-04-07T05:13:38.767Z,100315.66
2023-04-07T05:16:07.905Z,100321.53
2023-04-07T05:18:36.584Z,100316.63
2023-04-07T05:21:05.331Z,100320.03
2023-04-07T05:23:33.659Z,100312.28
2023-04-07T05:26:02.065Z,100326.13
2023-04-07T05:28:32.077Z,100328.72
2023-04-07T05:31:01.536Z,100331.63
2023-04-07T05:33:29.917Z,100343.16
2023-04-07T05:35:58.440Z,100340.56
2023-04-07T05:38:26.896Z,100348.25
2023-04-07T05:40:55.211Z,100342.81
2023-04-07T05:43:23.589Z,100341.94
2023-04-07T05:45:53.545Z,100345.59
2023-04-07T05:48:21.903Z,100346.91
2023-04-07T05:50:50.225Z,100343.09
2023-04-07T05:53:18.606Z,100346.03
2023-04-07T05:55:46.883Z,100344.69
2023-04-07T05:58:15.236Z,100346.75
2023-04-07T06:00:43.604Z,100340.81
2023-04-07T06:03:13.426Z,100340.69
2023-04-07T06:05:43.754Z,100347.06
2023-04-07T06:08:12.131Z,100355.25
2023-04-07T06:10:41.606Z,100353.06
2023-04-07T06:13:09.945Z,100361.78
2023-04-07T06:15:38.317Z,100363.25
2023-04-07T06:18:06.816Z,100364.34
2023-04-07T06:20:37.080Z,100368.16
2023-04-07T06:23:05.387Z,100365.50
2023-04-07T06:25:33.744Z,100368.66
2023-04-07T06:28:02.206Z,100371.28
2023-04-07T06:30:30.862Z,100374.53
2023-04-07T06:32:59.249Z,100379.31
2023-04-07T06:35:28.111Z,100379.63
2023-04-07T06:37:58.292Z,100376.66
2023-04-07T06:40:26.725Z,100376.81
2023-04-07T06:42:56.650Z,100387.84
2023-04-07T06:45:25.081Z,100382.50
2023-04-07T06:47:53.439Z,100379.69
2023-04-07T06:50:22.505Z,100387.75
2023-04-07T06:52:50.766Z,100397.84
2023-04-07T06:55:20.827Z,100383.47
2023-04-07T06:57:50.899Z,100390.09
2023-04-07T07:00:20.281Z,100391.81
2023-04-07T07:02:48.800Z,100388.97
2023-04-07T07:05:17.572Z,100390.72
2023-04-07T07:07:45.902Z,100402.06
2023-04-07T07:10:14.247Z,100401.91
2023-04-07T07:12:44.283Z,100402.09
2023-04-07T07:15:13.021Z,100405.69
2023-04-07T07:17:41.637Z,100401.81
2023-04-07T07:20:11.237Z,100413.94
2023-04-07T07:22:39.737Z,100409.06
2023-04-07T07:25:08.787Z,100416.34
2023-04-07T07:27:37.101Z,100421.66
2023-04-07T07:30:08.730Z,100416.28
2023-04-07T07:32:37.679Z,100414.25
2023-04-07T07:35:08.629Z,100425.59
2023-04-07T07:37:37.287Z,100420.78
2023-04-07T07:40:06.042Z,100425.19
2023-04-07T07:42:34.484Z,100433.03
2023-04-07T07:45:02.978Z,100428.47
2023-04-07T07:47:32.968Z,100437.09
2023-04-07T07:50:01.427Z,100426.75
2023-04-07T07:52:29.767Z,100433.38
2023-04-07T07:54:59.301Z,100436.84
2023-04-07T07:57:27.690Z,100435.00
2023-04-07T07:59:56.041Z,100438.28
2023-04-07T08:02:29.945Z,100442.75
2023-04-07T08:04:59.980Z,100437.53
2023-04-07T08:07:29.146Z,100438.78
2023-04-07T08:09:57.501Z,100438.63
2023-04-07T08:12:26.644Z,100439.41
2023-04-07T08:14:55.015Z,100439.09
2023-04-07T08:17:23.378Z,100442.22
2023-04-07T08:19:51.746Z,100446.31
2023-04-07T08:22:21.446Z,100446.50
2023-04-07T08:24:49.875Z,100442.34
2023-04-07T08:27:18.383Z,100446.91
2023-04-07T08:29:46.708Z,100445.88
2023-04-07T08:32:15.449Z,100443.06
2023-04-07T08:34:46.756Z,100453.53
2023-04-07T08:37:15.151Z,100453.84
2023-04-07T08:39:44.979Z,100458.78
2023-04-07T08:42:14.374Z,100464.00
2023-04-07T08:44:43.041Z,100457.78
2023-04-07T08:47:12.112Z,100454.97
2023-04-07T08:49:44.985Z,100461.38
2023-04-07T08:52:16.622Z,100464.28
2023-04-07T08:54:46.580Z,100465.25
2023-04-07T08:57:15.850Z,100459.91
2023-04-07T08:59:47.282Z,100469.38
2023-04-07T09:02:16.637Z,100468.25
2023-04-07T09:04:45.893Z,100462.81
2023-04-07T09:07:14.162Z,100471.63
2023-04-07T09:09:42.872Z,100478.28
2023-04-07T09:12:13.440Z,100474.81
2023-04-07T09:14:41.833Z,100478.59
2023-04-07T09:17:10.128Z,100478.91
2023-04-07T09:19:38.785Z,100476.25
2023-04-07T09:22:08.437Z,100480.66
2023-04-07T09:24:36.837Z,100490.19
2023-04-07T09:27:16.933Z,100479.56
2023-04-07T09:29:47.258Z,100486.03
2023-04-07T09:32:37.337Z,100482.31
2023-04-07T09:35:06.565Z,100490.31
2023-04-07T09:37:34.990Z,100493.34
2023-04-07T09:40:03.411Z,100499.50
2023-04-07T09:42:36.254Z,100486.56
2023-04-07T09:45:04.853Z,100495.03
2023-04-07T09:47:34.141Z,100492.69
2023-04-07T09:50:07.139Z,100496.91
2023-04-07T09:52:54.056Z,100492.47
2023-04-07T09:55:23.707Z,100497.78
2023-04-07T09:57:55.515Z,100491.66
2023-04-07T10:00:24.131Z,100498.97
2023-04-07T10:02:53.473Z,100499.72
2023-04-07T10:05:22.760Z,100500.16
2023-04-07T10:07:51.584Z,100496.13
2023-04-07T10:10:20.038Z,100492.25
2023-04-07T10:12:55.590Z,100499.19
2023-04-07T10:15:24.673Z,100503.56
2023-04-07T10:17:57.005Z,100500.38
2023-04-07T10:20:26.254Z,100492.81
2023-04-07T10:22:57.089Z,100501.94
2023-04-07T10:25:27.060Z,100495.53
2023-04-07T10:28:01.781Z,100505.81
2023-04-07T10:30:33.632Z,100511.69
2023-04-07T10:33:02.506Z,100505.84
2023-04-07T10:35:51.311Z,100506.78
2023-04-07T10:38:19.864Z,100504.63
2023-04-07T10:40:48.385Z,100504.69
2023-04-07T10:43:39.066Z,100497.28
2023-04-07T10:46:07.442Z,100504.38
2023-04-07T10:48:36.382Z,100498.66
2023-04-07T10:51:18.413Z,100504.53
2023-04-07T10:54:16.986Z,100500.72
2023-04-07T10:57:10.336Z,100503.63
2023-04-07T10:59:43.082Z,100503.81
2023-04-07T11:02:33.925Z,100507.88
2023-04-07T11:05:02.871Z,100501.66
2023-04-07T11:07:50.064Z,100506.22
2023-04-07T11:10:19.613Z,100514.03
2023-04-07T11:13:07.640Z,100503.16
2023-04-07T11:15:40.727Z,100502.88
2023-04-07T11:18:12.309Z,100508.53
2023-04-07T11:20:48.914Z,100502.88
2023-04-07T11:23:18.744Z,100508.53
2023-04-07T11:25:48.364Z,100502.31
2023-04-07T11:28:16.880Z,100513.69
2023-04-07T11:30:52.917Z,100510.69
2023-04-07T11:33:22.736Z,100502.75
2023-04-07T11:35:56.947Z,100501.19
2023-04-07T11:38:27.356Z,100510.28
2023-04-07T11:40:56.769Z,100507.91
2023-04-07T11:43:26.537Z,100505.09
2023-04-07T11:46:10.852Z,100503.81
2023-04-07T11:48:39.994Z,100501.94
2023-04-07T11:51:08.976Z,100502.03
2023-04-07T11:53:38.785Z,100503.06
2023-04-07T11:56:10.099Z,100503.41
2023-04-07T11:58:38.795Z,100507.59
2023-04-07T12:01:10.356Z,100506.94
2023-04-07T12:03:39.319Z,100510.56
2023-04-07T12:06:07.827Z,100510.28
2023-04-07T12:08:41.055Z,100513.91
2023-04-07T12:11:09.405Z,100517.09
2023-04-07T12:13:38.142Z,100512.41
2023-04-07T12:16:06.852Z,100513.47
2023-04-07T12:18:36.670Z,100516.88
2023-04-07T12:21:05.645Z,100515.16
2023-04-07T12:23:34.047Z,100518.34
2023-04-07T12:26:02.557Z,100513.28
2023-04-07T12:28:30.842Z,100510.13
2023-04-07T12:30:59.272Z,100504.56
2023-04-07T12:33:27.676Z,100508.06
2023-04-07T12:35:58.135Z,100502.81
2023-04-07T12:38:26.552Z,100506.44
2023-04-07T12:40:54.804Z,100508.19
2023-04-07T12:43:23.717Z,100507.41
2023-04-07T12:45:52.079Z,100512.28
2023-04-07T12:48:20.453Z,100510.19
2023-04-07T12:50:48.696Z,100515.19
2023-04-07T12:53:18.596Z,100521.38
2023-04-07T12:55:50.137Z,100525.44
2023-04-07T12:58:19.214Z,100530.66
2023-04-07T13:00:48.627Z,100530.97
2023-04-07T13:03:17.727Z,100543.78
2023-04-07T13:05:46.325Z,100535.59
2023-04-07T13:08:14.630Z,100544.94
2023-04-07T13:10:44.449Z,100543.63
2023-04-07T13:13:12.972Z,100544.75
2023-04-07T13:15:41.442Z,100543.78
2023-04-07T13:18:09.743Z,100543.97
2023-04-07T13:20:38.144Z,100548.56
2023-04-07T13:23:09.641Z,100555.13
2023-04-07T13:25:38.383Z,100556.78
2023-04-07T13:28:08.140Z,100554.66
2023-04-07T13:30:36.482Z,100555.22
2023-04-07T13:33:05.104Z,100556.22
2023-04-07T13:35:36.104Z,100560.06
2023-04-07T13:38:04.613Z,100556.19
2023-04-07T13:40:32.919Z,100557.72
2023-04-07T13:43:01.867Z,100560.03
2023-04-07T13:45:31.599Z,100559.06
2023-04-07T13:47:59.955Z,100557.72
2023-04-07T13:50:29.124Z,100559.16
2023-04-07T13:52:57.496Z,100558.50
2023-04-07T13:55:25.941Z,100562.59
2023-04-07T13:57:54.899Z,100569.91
2023-04-07T14:00:23.261Z,100567.28
2023-04-07T14:02:53.155Z,100566.03
2023-04-07T14:05:21.776Z,100573.81
2023-04-07T14:07:51.150Z,100578.06
2023-04-07T14:10:19.796Z,100574.50
2023-04-07T14:12:48.578Z,100570.84
2023-04-07T14:15:18.384Z,100574.91
2023-04-07T14:17:46.838Z,100570.03
2023-04-07T14:20:16.794Z,100578.44
2023-04-07T14:22:45.300Z,100573.00
2023-04-07T14:25:13.636Z,100582.81
2023-04-07T14:27:42.011Z,100582.50
2023-04-07T14:30:11.677Z,100588.28
2023-04-07T14:32:40.090Z,100594.44
2023-04-07T14:35:09.383Z,100599.97
2023-04-07T14:37:39.869Z,100605.75
2023-04-07T14:40:09.500Z,100607.84
2023-04-07T14:42:38.251Z,100597.94
2023-04-07T14:45:07.696Z,100602.41
2023-04-07T14:47:36.138Z,100600.97
2023-04-07T14:50:04.505Z,100606.06
2023-04-07T14:52:32.930Z,100604.06
2023-04-07T14:55:02.926Z,100609.22
2023-04-07T14:57:31.477Z,100609.91
2023-04-07T14:59:59.765Z,100610.69
2023-04-07T15:02:29.375Z,100622.31
2023-04-07T15:04:58.037Z,100626.25
2023-04-07T15:07:26.838Z,100626.06
2023-04-07T15:09:55.490Z,100626.72
2023-04-07T15:12:26.472Z,100622.59
2023-04-07T15:14:55.034Z,100633.41
2023-04-07T15:17:32.994Z,100632.00
2023-04-07T15:20:05.332Z,100623.72
2023-04-07T15:22:34.023Z,100617.72
2023-04-07T15:25:03.444Z,100626.25
2023-04-07T15:27:33.191Z,100625.59
2023-04-07T15:30:01.587Z,100630.84
2023-04-07T15:32:32.587Z,100635.28
2023-04-07T15:35:01.119Z,100622.28
2023-04-07T15:37:29.386Z,100625.47
2023-04-07T15:39:57.675Z,100627.56
2023-04-07T15:42:25.966Z,100630.44
2023-04-07T15:44:55.786Z,100632.22
2023-04-07T15:47:24.103Z,100635.75
2023-04-07T15:49:52.559Z,100638.00
2023-04-07T15:52:21.051Z,100642.50
2023-04-07T15:54:49.390Z,100645.16
2023-04-07T15:57:17.933Z,100649.94
2023-04-07T15:59:46.500Z,100645.03
2023-04-07T16:02:16.902Z,100650.44
2023-04-07T16:04:47.491Z,100657.22
2023-04-07T16:07:15.852Z,100654.34
2023-04-07T16:09:44.386Z,100652.88
2023-04-07T16:12:12.756Z,100652.84
2023-04-07T16:14:41.244Z,100660.78
2023-04-07T16:17:09.711Z,100653.00
2023-04-07T16:19:39.552Z,100667.38
2023-04-07T16:22:07.835Z,100667.91
2023-04-07T16:24:37.469Z,100677.22
2023-04-07T16:27:05.821Z,100674.63
2023-04-07T16:29:34.215Z,100679.63
2023-04-07T16:32:03.397Z,100682.28
2023-04-07T16:34:32.401Z,100683.47
2023-04-07T16:37:02.184Z,100690.22
2023-04-07T16:39:30.738Z,100680.91
2023-04-07T16:41:59.071Z,100689.13
2023-04-07T16:44:27.421Z,100695.19
2023-04-07T16:46:55.820Z,100694.56
2023-04-07T16:49:24.354Z,100699.25
2023-04-07T16:51:52.800Z,100704.19
2023-04-07T16:54:22.709Z,100704.97
2023-04-07T16:56:51.419Z,100706.84
2023-04-07T16:59:19.741Z,100708.97
2023-04-07T17:01:48.175Z,100715.63
2023-04-07T17:04:16.684Z,100722.81
2023-04-07T17:06:45.009Z,100722.81
2023-04-07T17:09:16.173Z,100730.25
2023-04-07T17:11:45.985Z,100736.44
2023-04-07T17:14:14.336Z,100733.59
2023-04-07T17:16:42.759Z,100737.16
2023-04-07T17:19:11.210Z,100735.28
2023-04-07T17:21:39.598Z,100741.38
2023-04-07T17:24:08.392Z,100747.72
2023-04-07T17:26:36.812Z,100756.28
2023-04-07T17:29:06.530Z,100747.16
2023-04-07T17:31:36.139Z,100750.09
2023-04-07T17:34:04.566Z,100755.16
2023-04-07T17:36:33.837Z,100764.75
2023-04-07T17:39:03.246Z,100756.50
2023-04-07T17:41:34.441Z,100758.41
2023-04-07T17:44:03.325Z,100764.34
2023-04-07T17:46:33.166Z,100769.44
2023-04-07T17:49:02.125Z,100774.28
2023-04-07T17:51:30.530Z,100773.22
2023-04-07T17:53:58.904Z,100775.56
2023-04-07T17:56:27.239Z,100780.06
2023-04-07T17:58:55.835Z,100772.63
2023-04-07T18:01:24.789Z,100785.97
2023-04-07T18:03:55.734Z,100783.78
2023-04-07T18:06:24.260Z,100778.47
2023-04-07T18:08:52.698Z,100789.19
2023-04-07T18:11:21.791Z,100786.78
2023-04-07T18:13:50.725Z,100795.94
2023-04-07T18:16:22.042Z,100793.31
2023-04-07T18:18:50.773Z,100802.63
2023-04-07T18:21:20.524Z,100804.22
2023-04-07T18:23:48.992Z,100814.88
2023-04-07T18:26:17.744Z,100816.53
2023-04-07T18:28:46.626Z,100817.06
2023-04-07T18:31:15.561Z,100820.00
2023-04-07T18:33:43.975Z,100822.91
2023-04-07T18:36:13.932Z,100819.44
2023-04-07T18:38:43.724Z,100817.81
2023-04-07T18:41:14.244Z,100818.88
2023-04-07T18:43:42.761Z,100825.00
2023-04-07T18:46:11.743Z,100823.66
2023-04-07T18:48:41.003Z,100823.91
2023-04-07T18:51:09.480Z,100818.56
2023-04-07T18:53:38.112Z,100817.78
2023-04-07T18:56:07.929Z,100819.41
2023-04-07T18:58:43.792Z,100822.59
2023-04-07T19:01:13.155Z,100820.22
2023-04-07T19:03:42.071Z,100821.81
2023-04-07T19:06:10.780Z,100829.81
2023-04-07T19:08:39.805Z,100823.44
2023-04-07T19:11:09.562Z,100824.25
2023-04-07T19:13:37.888Z,100819.72
2023-04-07T19:16:07.752Z,100820.81
2023-04-07T19:18:36.798Z,100823.50
2023-04-07T19:21:05.390Z,100829.09
2023-04-07T19:23:33.756Z,100822.69
2023-04-07T19:26:02.169Z,100821.91
2023-04-07T19:28:33.877Z,100834.19
2023-04-07T19:31:02.505Z,100830.22
2023-04-07T19:33:30.874Z,100835.25
2023-04-07T19:35:59.276Z,100836.28
2023-04-07T19:38:27.801Z,100831.25
2023-04-07T19:40:56.267Z,100833.97
2023-04-07T19:43:24.788Z,100836.88
2023-04-07T19:45:54.689Z,100841.13
2023-04-07T19:48:23.557Z,100836.63
2023-04-07T19:50:51.861Z,100841.94
2023-04-07T19:53:22.444Z,100841.38
2023-04-07T19:55:50.967Z,100835.53
2023-04-07T19:58:21.830Z,100835.81
2023-04-07T20:00:51.957Z,100833.69
2023-04-07T20:03:22.103Z,100844.31
2023-04-07T20:05:52.936Z,100839.00
2023-04-07T20:08:21.504Z,100840.06
2023-04-07T20:10:52.630Z,100832.63
2023-04-07T20:13:21.221Z,100839.00
2023-04-07T20:15:49.840Z,100839.00
2023-04-07T20:18:18.702Z,100835.81
2023-04-07T20:20:48.540Z,100836.09
2023-04-07T20:23:22.193Z,100843.28
2023-04-07T20:25:50.500Z,100839.56
2023-04-07T20:28:18.835Z,100841.44
2023-04-07T20:30:47.282Z,100834.25
2023-04-07T20:33:15.733Z,100840.09
2023-04-07T20:35:44.239Z,100844.94
2023-04-07T20:38:14.892Z,100835.59
2023-04-07T20:40:43.256Z,100838.53
2023-04-07T20:43:11.795Z,100840.66
2023-04-07T20:45:40.913Z,100837.47
2023-04-07T20:48:09.477Z,100841.47
2023-04-07T20:50:38.371Z,100828.94
2023-04-07T20:53:06.942Z,100837.22
2023-04-07T20:55:36.789Z,100838.25
2023-04-07T20:58:05.585Z,100836.94
2023-04-07T21:00:34.069Z,100840.13
2023-04-07T21:03:02.826Z,100838.00
2023-04-07T21:05:31.359Z,100835.88
2023-04-07T21:07:59.664Z,100838.00
2023-04-07T21:10:28.309Z,100839.59
2023-04-07T21:12:58.069Z,100839.59
2023-04-07T21:15:26.558Z,100839.59
2023-04-07T21:17:55.003Z,100837.72
2023-04-07T21:20:23.436Z,100840.38
2023-04-07T21:22:51.768Z,100838.78
2023-04-07T21:25:20.424Z,100838.75
2023-04-07T21:27:48.752Z,100842.50
2023-04-07T21:30:18.475Z,100837.16
2023-04-07T21:32:47.264Z,100844.59
2023-04-07T21:35:15.742Z,100844.06
2023-04-07T21:37:44.091Z,100844.34
2023-04-07T21:40:13.245Z,100854.72
2023-04-07T21:42:41.892Z,100848.84
2023-04-07T21:45:11.707Z,100856.56
2023-04-07T21:47:41.900Z,100853.88
2023-04-07T21:50:10.889Z,100857.34
2023-04-07T21:52:39.520Z,100850.16
2023-04-07T21:55:10.103Z,100851.22
2023-04-07T21:57:38.577Z,100857.91
2023-04-07T22:00:08.603Z,100864.56
2023-04-07T22:02:37.358Z,100861.09
2023-04-07T22:05:07.671Z,100859.25
2023-04-07T22:07:36.229Z,100864.63
2023-04-07T22:10:04.932Z,100865.44
2023-04-07T22:12:33.416Z,100856.09
2023-04-07T22:15:01.778Z,100861.94
2023-04-07T22:17:30.225Z,100858.78
2023-04-07T22:19:58.614Z,100861.44
2023-04-07T22:22:28.375Z,100860.63
2023-04-07T22:24:56.726Z,100860.38
2023-04-07T22:27:25.076Z,100859.84
2023-04-07T22:29:53.457Z,100853.44
2023-04-07T22:32:21.903Z,100851.59
2023-04-07T22:34:50.267Z,100854.50
2023-04-07T22:37:19.453Z,100858.47
2023-04-07T22:39:49.285Z,100858.72
2023-04-07T22:42:17.660Z,100851.81
2023-04-07T22:44:46.298Z,100853.94
2023-04-07T22:47:14.631Z,100856.59
2023-04-07T22:49:43.380Z,100851.28
2023-04-07T22:52:13.817Z,100859.84
2023-04-07T22:54:42.142Z,100865.94
2023-04-07T22:57:11.879Z,100865.16
2023-04-07T22:59:40.486Z,100860.91
2023-04-07T23:02:08.900Z,100855.00
2023-04-07T23:04:37.287Z,100861.41
2023-04-07T23:07:05.800Z,100859.31
2023-04-07T23:09:34.125Z,100855.84
2023-04-07T23:12:02.766Z,100848.94
2023-04-07T23:14:32.728Z,100860.34
2023-04-07T23:17:01.310Z,100847.84
2023-04-07T23:19:30.032Z,100857.97
2023-04-07T23:21:58.354Z,100851.03
2023-04-07T23:24:26.984Z,100851.59
2023-04-07T23:26:56.040Z,100851.59
2023-04-07T23:29:24.314Z,100849.72
2023-04-07T23:31:54.455Z,100854.25
2023-04-07T23:34:22.997Z,100852.38
2023-04-07T23:36:51.771Z,100849.19
2023-04-07T23:39:20.139Z,100847.06
2023-04-07T23:41:48.464Z,100848.13
2023-04-07T23:44:16.987Z,100850.78
2023-04-07T23:46:45.396Z,100845.72
2023-04-07T23:49:15.150Z,100847.84
2023-04-07T23:51:43.835Z,100849.97
2023-04-07T23:54:12.514Z,100845.19
2023-04-07T23:56:40.966Z,100840.13
2023-04-07T23:59:09.258Z,100839.59
